Isle Of Innisfree — EIBW — position and weather

sailwx.info

Track history (hours):
 
Tides and Currents Weather Stations Pressure Air Temp Water Temp Dewpoint Dewpoint Depression Visibility Wind Speed Wind Dir Waves Ship Positions

Isle Of Innisfree

Operator: Irish Ferries

Last reported at 2017-Sep-22 02:00 UTC. Time now 2017-Sep-23 02:21 UTC.
Position N 51°27' W 009°56'.

Length 36 m; draft 6.6 m.

Type: Fishing. MMSI: 250102800.

Date/timePositionNaut miles runAvg speedWind from/ knotsBaromVisibWave heightAir tempDewpointWater temp
2017-Sep-22 02:00N 51°27' W 009°56'611.1
2017-Sep-22 01:30N 51°22' W 009°55'510.8
2017-Sep-22 01:00N 51°17' W 009°54'279 6.3
2017-Sep-20 04:54N 48°06' W 004°39'410.4
2017-Sep-20 04:30N 48°07' W 004°33'510.1
2017-Sep-20 04:00N 48°07' W 004°25'4 8.3
2017-Sep-20 03:30N 48°06' W 004°19'0 0.4
2017-Sep-20 03:01N 48°06' W 004°20'0 0.0
2017-Sep-20 02:30N 48°06' W 004°20'0 0.0
2017-Sep-20 02:00N 48°06' W 004°20'0 0.0
2017-Sep-20 01:30N 48°06' W 004°20'0 0.0
2017-Sep-20 01:00N 48°06' W 004°20'0 0.0
2017-Sep-20 00:30N 48°06' W 004°20'0 0.0
2017-Sep-20 00:00N 48°06' W 004°20'0 0.0
2017-Sep-19 23:30N 48°06' W 004°20'0 0.0
2017-Sep-19 23:00N 48°06' W 004°20'0 0.0
2017-Sep-19 22:30N 48°06' W 004°20'0 0.0
2017-Sep-19 22:00N 48°06' W 004°20'0 0.0
2017-Sep-19 21:30N 48°06' W 004°20'0 0.0
2017-Sep-19 21:00N 48°06' W 004°20'0 0.0
2017-Sep-19 20:30N 48°06' W 004°20'0 0.0
2017-Sep-19 20:00N 48°06' W 004°20'0 0.0
2017-Sep-19 19:30N 48°06' W 004°20'0 0.0
2017-Sep-19 19:00N 48°06' W 004°20'0 0.0
2017-Sep-19 18:31N 48°06' W 004°20'0 0.2
2017-Sep-19 18:00N 48°06' W 004°19'0 0.0
2017-Sep-19 17:30N 48°06' W 004°19'0 0.0
2017-Sep-19 17:00N 48°06' W 004°19'0 0.0
2017-Sep-19 16:30N 48°06' W 004°19'0 0.0
2017-Sep-19 16:01N 48°06' W 004°19'0 0.0
2017-Sep-19 15:31N 48°06' W 004°19'0 0.0
2017-Sep-19 15:00N 48°06' W 004°19'1 2.6
2017-Sep-19 14:30N 48°07' W 004°21'5 9.8
2017-Sep-19 14:00N 48°07' W 004°28'510.7
2017-Sep-19 13:30N 48°06' W 004°36'510.1
2017-Sep-19 13:00N 48°04' W 004°43'5 9.8
2017-Sep-19 12:30N 47°60' W 004°46'611.5
2017-Sep-19 12:00N 47°54' W 004°46'  
Track history (hours):
 
Tides and Currents Weather Stations Pressure Air Temp Water Temp Dewpoint Dewpoint Depression Visibility Wind Speed Wind Dir Waves Ship Positions

Isle Of Innisfree

Operator: Irish Ferries

Last reported at 2017-Sep-22 02:00 UTC. Time now 2017-Sep-23 02:21 UTC.
Position N 51°27' W 009°56'.

Length 36 m; draft 6.6 m.

Type: Fishing. MMSI: 250102800.

Date/timePositionNaut miles runAvg speedWind from/ knotsBaromVisibWave heightAir tempDewpointWater temp
2017-Sep-22 02:00N 51°27' W 009°56'611.1
2017-Sep-22 01:30N 51°22' W 009°55'510.8
2017-Sep-22 01:00N 51°17' W 009°54'279 6.3
2017-Sep-20 04:54N 48°06' W 004°39'410.4
2017-Sep-20 04:30N 48°07' W 004°33'510.1
2017-Sep-20 04:00N 48°07' W 004°25'4 8.3
2017-Sep-20 03:30N 48°06' W 004°19'0 0.4
2017-Sep-20 03:01N 48°06' W 004°20'0 0.0
2017-Sep-20 02:30N 48°06' W 004°20'0 0.0
2017-Sep-20 02:00N 48°06' W 004°20'0 0.0
2017-Sep-20 01:30N 48°06' W 004°20'0 0.0
2017-Sep-20 01:00N 48°06' W 004°20'0 0.0
2017-Sep-20 00:30N 48°06' W 004°20'0 0.0
2017-Sep-20 00:00N 48°06' W 004°20'0 0.0
2017-Sep-19 23:30N 48°06' W 004°20'0 0.0
2017-Sep-19 23:00N 48°06' W 004°20'0 0.0
2017-Sep-19 22:30N 48°06' W 004°20'0 0.0
2017-Sep-19 22:00N 48°06' W 004°20'0 0.0
2017-Sep-19 21:30N 48°06' W 004°20'0 0.0
2017-Sep-19 21:00N 48°06' W 004°20'0 0.0
2017-Sep-19 20:30N 48°06' W 004°20'0 0.0
2017-Sep-19 20:00N 48°06' W 004°20'0 0.0
2017-Sep-19 19:30N 48°06' W 004°20'0 0.0
2017-Sep-19 19:00N 48°06' W 004°20'0 0.0
2017-Sep-19 18:31N 48°06' W 004°20'0 0.2
2017-Sep-19 18:00N 48°06' W 004°19'0 0.0
2017-Sep-19 17:30N 48°06' W 004°19'0 0.0
2017-Sep-19 17:00N 48°06' W 004°19'0 0.0
2017-Sep-19 16:30N 48°06' W 004°19'0 0.0
2017-Sep-19 16:01N 48°06' W 004°19'0 0.0
2017-Sep-19 15:31N 48°06' W 004°19'0 0.0
2017-Sep-19 15:00N 48°06' W 004°19'1 2.6
2017-Sep-19 14:30N 48°07' W 004°21'5 9.8
2017-Sep-19 14:00N 48°07' W 004°28'510.7
2017-Sep-19 13:30N 48°06' W 004°36'510.1
2017-Sep-19 13:00N 48°04' W 004°43'5 9.8
2017-Sep-19 12:30N 47°60' W 004°46'611.5
2017-Sep-19 12:00N 47°54' W 004°46'  

Dump ship's entire track history